sensor_id;sensor_type;location;lat;lon;timestamp;P1;durP1;ratioP1;P2;durP2;ratioP2
28627;SDS011;15815;46.760;19.604;2023-04-30T00:01:40;32.63;;;19.75;;
28627;SDS011;15815;46.760;19.604;2023-04-30T00:04:05;29.88;;;18.13;;
28627;SDS011;15815;46.760;19.604;2023-04-30T00:06:31;32.55;;;17.58;;
28627;SDS011;15815;46.760;19.604;2023-04-30T00:08:57;23.98;;;16.05;;
28627;SDS011;15815;46.760;19.604;2023-04-30T00:11:23;28.77;;;17.10;;
28627;SDS011;15815;46.760;19.604;2023-04-30T00:13:48;24.88;;;16.38;;
28627;SDS011;15815;46.760;19.604;2023-04-30T00:16:18;26.80;;;15.02;;
28627;SDS011;15815;46.760;19.604;2023-04-30T00:18:44;19.80;;;12.43;;
28627;SDS011;15815;46.760;19.604;2023-04-30T00:21:09;16.45;;;11.52;;
28627;SDS011;15815;46.760;19.604;2023-04-30T00:23:35;19.65;;;11.02;;
28627;SDS011;15815;46.760;19.604;2023-04-30T00:26:01;28.58;;;10.30;;
28627;SDS011;15815;46.760;19.604;2023-04-30T00:28:27;18.10;;;9.77;;
28627;SDS011;15815;46.760;19.604;2023-04-30T00:30:53;14.13;;;10.32;;
28627;SDS011;15815;46.760;19.604;2023-04-30T00:33:19;15.75;;;10.05;;
28627;SDS011;15815;46.760;19.604;2023-04-30T00:35:45;18.52;;;9.60;;
28627;SDS011;15815;46.760;19.604;2023-04-30T00:38:13;15.13;;;9.35;;
28627;SDS011;15815;46.760;19.604;2023-04-30T00:40:39;12.27;;;9.48;;
28627;SDS011;15815;46.760;19.604;2023-04-30T00:43:06;18.92;;;10.05;;
28627;SDS011;15815;46.760;19.604;2023-04-30T00:45:31;20.90;;;10.30;;
28627;SDS011;15815;46.760;19.604;2023-04-30T00:47:58;13.18;;;9.88;;
28627;SDS011;15815;46.760;19.604;2023-04-30T00:50:24;15.70;;;10.68;;
28627;SDS011;15815;46.760;19.604;2023-04-30T00:52:49;14.75;;;10.77;;
28627;SDS011;15815;46.760;19.604;2023-04-30T00:55:15;17.42;;;9.82;;
28627;SDS011;15815;46.760;19.604;2023-04-30T00:57:41;17.27;;;9.80;;
28627;SDS011;15815;46.760;19.604;2023-04-30T01:00:07;19.27;;;10.70;;
28627;SDS011;15815;46.760;19.604;2023-04-30T01:02:34;12.30;;;10.75;;
28627;SDS011;15815;46.760;19.604;2023-04-30T01:05:01;15.30;;;9.80;;
28627;SDS011;15815;46.760;19.604;2023-04-30T01:07:29;13.68;;;9.82;;
28627;SDS011;15815;46.760;19.604;2023-04-30T01:09:55;12.43;;;10.10;;
28627;SDS011;15815;46.760;19.604;2023-04-30T01:12:36;15.85;;;10.73;;
28627;SDS011;15815;46.760;19.604;2023-04-30T01:17:58;15.55;;;10.95;;
28627;SDS011;15815;46.760;19.604;2023-04-30T01:20:54;15.88;;;9.88;;
28627;SDS011;15815;46.760;19.604;2023-04-30T01:23:32;18.40;;;9.88;;
28627;SDS011;15815;46.760;19.604;2023-04-30T01:28:58;14.57;;;10.32;;
28627;SDS011;15815;46.760;19.604;2023-04-30T01:31:27;13.30;;;11.52;;
28627;SDS011;15815;46.760;19.604;2023-04-30T01:33:53;18.63;;;11.15;;
28627;SDS011;15815;46.760;19.604;2023-04-30T01:42:20;27.70;;;12.00;;
28627;SDS011;15815;46.760;19.604;2023-04-30T01:53:17;19.02;;;13.25;;
28627;SDS011;15815;46.760;19.604;2023-04-30T01:55:56;26.02;;;15.32;;
28627;SDS011;15815;46.760;19.604;2023-04-30T01:58:26;20.73;;;13.32;;
28627;SDS011;15815;46.760;19.604;2023-04-30T02:00:52;18.80;;;13.77;;
28627;SDS011;15815;46.760;19.604;2023-04-30T02:03:19;20.15;;;12.63;;
28627;SDS011;15815;46.760;19.604;2023-04-30T02:05:45;18.98;;;12.45;;
28627;SDS011;15815;46.760;19.604;2023-04-30T02:08:11;16.33;;;11.40;;
28627;SDS011;15815;46.760;19.604;2023-04-30T02:10:38;16.95;;;13.10;;
28627;SDS011;15815;46.760;19.604;2023-04-30T02:13:04;25.45;;;12.10;;
28627;SDS011;15815;46.760;19.604;2023-04-30T02:15:29;17.58;;;11.23;;
28627;SDS011;15815;46.760;19.604;2023-04-30T02:17:55;17.92;;;10.40;;
28627;SDS011;15815;46.760;19.604;2023-04-30T02:20:20;18.70;;;11.60;;
28627;SDS011;15815;46.760;19.604;2023-04-30T02:22:46;19.70;;;11.23;;
28627;SDS011;15815;46.760;19.604;2023-04-30T02:25:11;13.10;;;11.07;;
28627;SDS011;15815;46.760;19.604;2023-04-30T02:27:37;18.33;;;10.98;;
28627;SDS011;15815;46.760;19.604;2023-04-30T02:30:03;14.32;;;10.27;;
28627;SDS011;15815;46.760;19.604;2023-04-30T02:32:30;14.45;;;11.27;;
28627;SDS011;15815;46.760;19.604;2023-04-30T02:34:55;16.42;;;11.43;;
28627;SDS011;15815;46.760;19.604;2023-04-30T02:37:22;14.30;;;11.18;;
28627;SDS011;15815;46.760;19.604;2023-04-30T02:39:48;21.15;;;12.00;;
28627;SDS011;15815;46.760;19.604;2023-04-30T02:42:14;16.67;;;11.07;;
28627;SDS011;15815;46.760;19.604;2023-04-30T02:44:39;19.67;;;11.40;;
28627;SDS011;15815;46.760;19.604;2023-04-30T02:47:05;18.00;;;11.95;;
28627;SDS011;15815;46.760;19.604;2023-04-30T02:49:31;15.43;;;12.00;;
28627;SDS011;15815;46.760;19.604;2023-04-30T02:51:57;14.82;;;11.40;;
28627;SDS011;15815;46.760;19.604;2023-04-30T02:54:23;16.73;;;12.15;;
28627;SDS011;15815;46.760;19.604;2023-04-30T02:56:49;16.00;;;12.05;;
28627;SDS011;15815;46.760;19.604;2023-04-30T02:59:15;15.07;;;11.02;;
28627;SDS011;15815;46.760;19.604;2023-04-30T03:01:41;16.45;;;11.50;;
28627;SDS011;15815;46.760;19.604;2023-04-30T03:04:06;14.60;;;11.18;;
28627;SDS011;15815;46.760;19.604;2023-04-30T03:06:32;19.17;;;12.00;;
28627;SDS011;15815;46.760;19.604;2023-04-30T03:08:58;23.88;;;12.02;;
28627;SDS011;15815;46.760;19.604;2023-04-30T03:11:24;14.27;;;11.07;;
28627;SDS011;15815;46.760;19.604;2023-04-30T03:13:51;15.23;;;11.50;;
28627;SDS011;15815;46.760;19.604;2023-04-30T03:16:17;21.52;;;12.57;;
28627;SDS011;15815;46.760;19.604;2023-04-30T03:18:44;20.02;;;12.88;;
28627;SDS011;15815;46.760;19.604;2023-04-30T03:21:11;20.90;;;13.50;;
28627;SDS011;15815;46.760;19.604;2023-04-30T03:23:36;21.13;;;13.45;;
28627;SDS011;15815;46.760;19.604;2023-04-30T03:26:02;21.50;;;12.63;;
28627;SDS011;15815;46.760;19.604;2023-04-30T03:28:28;16.45;;;12.70;;
28627;SDS011;15815;46.760;19.604;2023-04-30T03:30:54;19.15;;;13.27;;
28627;SDS011;15815;46.760;19.604;2023-04-30T03:33:20;20.40;;;13.55;;
28627;SDS011;15815;46.760;19.604;2023-04-30T03:35:45;18.60;;;13.10;;
28627;SDS011;15815;46.760;19.604;2023-04-30T03:38:11;20.65;;;14.80;;
28627;SDS011;15815;46.760;19.604;2023-04-30T03:40:37;24.15;;;14.20;;
28627;SDS011;15815;46.760;19.604;2023-04-30T03:43:02;18.50;;;14.30;;
28627;SDS011;15815;46.760;19.604;2023-04-30T03:45:28;17.90;;;13.88;;
28627;SDS011;15815;46.760;19.604;2023-04-30T03:47:53;19.98;;;12.68;;
28627;SDS011;15815;46.760;19.604;2023-04-30T03:50:19;18.42;;;12.80;;
28627;SDS011;15815;46.760;19.604;2023-04-30T03:52:45;21.13;;;13.13;;
28627;SDS011;15815;46.760;19.604;2023-04-30T03:55:10;19.33;;;14.30;;
28627;SDS011;15815;46.760;19.604;2023-04-30T03:57:38;18.48;;;12.60;;
28627;SDS011;15815;46.760;19.604;2023-04-30T04:00:04;21.33;;;13.20;;
28627;SDS011;15815;46.760;19.604;2023-04-30T04:02:31;21.77;;;13.50;;
28627;SDS011;15815;46.760;19.604;2023-04-30T04:04:56;16.48;;;12.25;;
28627;SDS011;15815;46.760;19.604;2023-04-30T04:07:22;19.20;;;12.85;;
28627;SDS011;15815;46.760;19.604;2023-04-30T04:09:47;21.83;;;13.85;;
28627;SDS011;15815;46.760;19.604;2023-04-30T04:12:13;27.27;;;13.65;;
28627;SDS011;15815;46.760;19.604;2023-04-30T04:14:38;20.63;;;12.98;;
28627;SDS011;15815;46.760;19.604;2023-04-30T04:17:04;21.83;;;13.55;;
28627;SDS011;15815;46.760;19.604;2023-04-30T04:19:31;19.25;;;12.82;;
28627;SDS011;15815;46.760;19.604;2023-04-30T04:21:56;19.48;;;13.32;;
28627;SDS011;15815;46.760;19.604;2023-04-30T04:24:25;19.77;;;13.15;;
28627;SDS011;15815;46.760;19.604;2023-04-30T04:26:51;22.52;;;13.55;;
28627;SDS011;15815;46.760;19.604;2023-04-30T04:29:16;21.95;;;13.85;;
28627;SDS011;15815;46.760;19.604;2023-04-30T04:31:44;28.33;;;13.02;;
28627;SDS011;15815;46.760;19.604;2023-04-30T04:34:11;22.58;;;13.82;;
28627;SDS011;15815;46.760;19.604;2023-04-30T04:36:36;28.83;;;13.07;;
28627;SDS011;15815;46.760;19.604;2023-04-30T04:39:02;20.00;;;14.45;;
28627;SDS011;15815;46.760;19.604;2023-04-30T04:41:31;22.05;;;13.55;;
28627;SDS011;15815;46.760;19.604;2023-04-30T04:43:58;21.88;;;14.02;;
28627;SDS011;15815;46.760;19.604;2023-04-30T04:46:24;21.65;;;13.85;;
28627;SDS011;15815;46.760;19.604;2023-04-30T04:48:51;27.30;;;13.60;;
28627;SDS011;15815;46.760;19.604;2023-04-30T04:51:17;21.77;;;15.15;;
28627;SDS011;15815;46.760;19.604;2023-04-30T04:53:42;19.33;;;12.23;;
28627;SDS011;15815;46.760;19.604;2023-04-30T04:56:08;22.98;;;13.93;;
28627;SDS011;15815;46.760;19.604;2023-04-30T04:58:34;28.42;;;18.33;;
28627;SDS011;15815;46.760;19.604;2023-04-30T05:00:59;19.25;;;14.40;;
28627;SDS011;15815;46.760;19.604;2023-04-30T05:03:26;22.83;;;14.48;;
28627;SDS011;15815;46.760;19.604;2023-04-30T05:05:52;17.42;;;14.02;;
28627;SDS011;15815;46.760;19.604;2023-04-30T05:08:18;17.15;;;12.57;;
28627;SDS011;15815;46.760;19.604;2023-04-30T05:10:43;19.90;;;11.95;;
28627;SDS011;15815;46.760;19.604;2023-04-30T05:13:09;20.77;;;12.63;;
28627;SDS011;15815;46.760;19.604;2023-04-30T05:15:38;15.57;;;11.98;;
28627;SDS011;15815;46.760;19.604;2023-04-30T05:18:04;17.10;;;12.05;;
28627;SDS011;15815;46.760;19.604;2023-04-30T05:20:33;19.67;;;11.93;;
28627;SDS011;15815;46.760;19.604;2023-04-30T05:22:58;19.15;;;12.77;;
28627;SDS011;15815;46.760;19.604;2023-04-30T05:25:24;23.48;;;13.32;;
28627;SDS011;15815;46.760;19.604;2023-04-30T05:27:49;25.42;;;12.60;;
28627;SDS011;15815;46.760;19.604;2023-04-30T05:30:15;21.15;;;12.35;;
28627;SDS011;15815;46.760;19.604;2023-04-30T05:32:43;24.65;;;12.75;;
28627;SDS011;15815;46.760;19.604;2023-04-30T05:35:08;22.02;;;12.27;;
28627;SDS011;15815;46.760;19.604;2023-04-30T05:37:34;17.67;;;12.63;;
28627;SDS011;15815;46.760;19.604;2023-04-30T05:39:59;17.42;;;12.68;;
28627;SDS011;15815;46.760;19.604;2023-04-30T05:42:25;17.70;;;12.63;;
28627;SDS011;15815;46.760;19.604;2023-04-30T05:44:51;26.00;;;13.00;;
28627;SDS011;15815;46.760;19.604;2023-04-30T05:47:16;22.08;;;13.23;;
28627;SDS011;15815;46.760;19.604;2023-04-30T05:49:42;19.63;;;14.70;;
28627;SDS011;15815;46.760;19.604;2023-04-30T05:52:07;29.45;;;18.02;;
28627;SDS011;15815;46.760;19.604;2023-04-30T05:56:58;21.57;;;14.80;;
28627;SDS011;15815;46.760;19.604;2023-04-30T05:59:26;18.73;;;13.52;;
28627;SDS011;15815;46.760;19.604;2023-04-30T06:01:55;18.13;;;12.50;;
28627;SDS011;15815;46.760;19.604;2023-04-30T06:04:24;19.30;;;12.20;;
28627;SDS011;15815;46.760;19.604;2023-04-30T06:06:49;18.83;;;12.15;;
28627;SDS011;15815;46.760;19.604;2023-04-30T06:11:45;35.25;;;12.65;;
28627;SDS011;15815;46.760;19.604;2023-04-30T06:14:12;16.23;;;12.40;;
28627;SDS011;15815;46.760;19.604;2023-04-30T06:16:38;15.40;;;11.18;;
28627;SDS011;15815;46.760;19.604;2023-04-30T06:19:04;16.63;;;11.65;;
28627;SDS011;15815;46.760;19.604;2023-04-30T06:21:29;14.95;;;11.50;;
28627;SDS011;15815;46.760;19.604;2023-04-30T06:23:56;18.95;;;12.10;;
28627;SDS011;15815;46.760;19.604;2023-04-30T06:26:21;15.57;;;13.15;;
28627;SDS011;15815;46.760;19.604;2023-04-30T06:28:47;16.65;;;13.27;;
28627;SDS011;15815;46.760;19.604;2023-04-30T06:31:13;14.60;;;11.80;;
28627;SDS011;15815;46.760;19.604;2023-04-30T06:33:38;16.40;;;12.10;;
28627;SDS011;15815;46.760;19.604;2023-04-30T06:36:04;14.57;;;11.05;;
28627;SDS011;15815;46.760;19.604;2023-04-30T06:38:32;15.18;;;11.05;;
28627;SDS011;15815;46.760;19.604;2023-04-30T06:40:57;14.35;;;10.55;;
28627;SDS011;15815;46.760;19.604;2023-04-30T06:43:23;13.15;;;9.52;;
28627;SDS011;15815;46.760;19.604;2023-04-30T06:45:49;16.77;;;10.93;;
28627;SDS011;15815;46.760;19.604;2023-04-30T06:48:14;12.75;;;8.95;;
28627;SDS011;15815;46.760;19.604;2023-04-30T06:50:40;11.07;;;9.48;;
28627;SDS011;15815;46.760;19.604;2023-04-30T06:53:07;16.90;;;9.50;;
28627;SDS011;15815;46.760;19.604;2023-04-30T06:55:32;12.05;;;8.80;;
28627;SDS011;15815;46.760;19.604;2023-04-30T06:57:58;14.77;;;8.85;;
28627;SDS011;15815;46.760;19.604;2023-04-30T07:00:24;11.13;;;9.75;;
28627;SDS011;15815;46.760;19.604;2023-04-30T07:02:49;15.15;;;10.27;;
28627;SDS011;15815;46.760;19.604;2023-04-30T07:05:15;10.30;;;9.27;;
28627;SDS011;15815;46.760;19.604;2023-04-30T07:07:40;13.43;;;8.70;;
28627;SDS011;15815;46.760;19.604;2023-04-30T07:10:06;13.82;;;9.85;;
28627;SDS011;15815;46.760;19.604;2023-04-30T07:12:37;13.13;;;9.00;;
28627;SDS011;15815;46.760;19.604;2023-04-30T07:15:03;12.55;;;8.63;;
28627;SDS011;15815;46.760;19.604;2023-04-30T07:17:29;10.95;;;8.45;;
28627;SDS011;15815;46.760;19.604;2023-04-30T07:19:54;9.65;;;7.57;;
28627;SDS011;15815;46.760;19.604;2023-04-30T07:22:20;9.57;;;6.57;;
28627;SDS011;15815;46.760;19.604;2023-04-30T07:24:46;10.48;;;7.05;;
28627;SDS011;15815;46.760;19.604;2023-04-30T07:27:12;8.00;;;7.20;;
28627;SDS011;15815;46.760;19.604;2023-04-30T07:29:37;11.18;;;7.68;;
28627;SDS011;15815;46.760;19.604;2023-04-30T07:32:03;10.68;;;7.82;;
28627;SDS011;15815;46.760;19.604;2023-04-30T07:34:29;14.43;;;8.52;;
28627;SDS011;15815;46.760;19.604;2023-04-30T07:36:54;13.55;;;8.35;;
28627;SDS011;15815;46.760;19.604;2023-04-30T07:39:20;11.68;;;8.90;;
28627;SDS011;15815;46.760;19.604;2023-04-30T07:41:46;10.20;;;8.30;;
28627;SDS011;15815;46.760;19.604;2023-04-30T07:44:13;11.88;;;8.45;;
28627;SDS011;15815;46.760;19.604;2023-04-30T07:46:39;10.27;;;8.45;;
28627;SDS011;15815;46.760;19.604;2023-04-30T07:49:08;12.18;;;8.95;;
28627;SDS011;15815;46.760;19.604;2023-04-30T07:51:33;15.10;;;10.27;;
28627;SDS011;15815;46.760;19.604;2023-04-30T07:54:02;12.13;;;9.60;;
28627;SDS011;15815;46.760;19.604;2023-04-30T07:56:28;10.05;;;8.75;;
28627;SDS011;15815;46.760;19.604;2023-04-30T07:58:58;10.73;;;8.65;;
28627;SDS011;15815;46.760;19.604;2023-04-30T08:01:24;10.05;;;8.38;;
28627;SDS011;15815;46.760;19.604;2023-04-30T08:03:49;11.65;;;8.75;;
28627;SDS011;15815;46.760;19.604;2023-04-30T08:06:15;9.95;;;8.90;;
28627;SDS011;15815;46.760;19.604;2023-04-30T08:08:41;9.18;;;8.27;;
28627;SDS011;15815;46.760;19.604;2023-04-30T08:11:06;9.75;;;7.90;;
28627;SDS011;15815;46.760;19.604;2023-04-30T08:13:32;9.13;;;7.55;;
28627;SDS011;15815;46.760;19.604;2023-04-30T08:16:00;9.05;;;7.50;;
28627;SDS011;15815;46.760;19.604;2023-04-30T08:18:26;9.73;;;7.10;;
28627;SDS011;15815;46.760;19.604;2023-04-30T08:20:55;8.35;;;7.20;;
28627;SDS011;15815;46.760;19.604;2023-04-30T08:23:22;6.90;;;6.20;;
28627;SDS011;15815;46.760;19.604;2023-04-30T08:25:47;8.70;;;6.13;;
28627;SDS011;15815;46.760;19.604;2023-04-30T08:28:13;7.85;;;5.63;;
28627;SDS011;15815;46.760;19.604;2023-04-30T08:30:41;7.47;;;5.68;;
28627;SDS011;15815;46.760;19.604;2023-04-30T08:33:07;12.93;;;6.38;;
28627;SDS011;15815;46.760;19.604;2023-04-30T08:38:15;5.65;;;5.15;;
28627;SDS011;15815;46.760;19.604;2023-04-30T08:40:40;4.75;;;4.35;;
28627;SDS011;15815;46.760;19.604;2023-04-30T08:43:10;10.70;;;4.53;;
28627;SDS011;15815;46.760;19.604;2023-04-30T08:45:38;5.05;;;4.10;;
28627;SDS011;15815;46.760;19.604;2023-04-30T08:48:09;4.20;;;3.83;;
28627;SDS011;15815;46.760;19.604;2023-04-30T08:50:35;6.45;;;4.07;;
28627;SDS011;15815;46.760;19.604;2023-04-30T08:53:09;6.78;;;3.80;;
28627;SDS011;15815;46.760;19.604;2023-04-30T08:55:52;6.18;;;2.80;;
28627;SDS011;15815;46.760;19.604;2023-04-30T08:58:23;3.90;;;3.35;;
28627;SDS011;15815;46.760;19.604;2023-04-30T09:00:49;3.00;;;2.78;;
28627;SDS011;15815;46.760;19.604;2023-04-30T09:03:26;3.70;;;2.90;;
28627;SDS011;15815;46.760;19.604;2023-04-30T09:05:53;3.40;;;3.10;;
28627;SDS011;15815;46.760;19.604;2023-04-30T09:08:39;3.78;;;3.08;;
28627;SDS011;15815;46.760;19.604;2023-04-30T09:11:19;2.42;;;2.22;;
28627;SDS011;15815;46.760;19.604;2023-04-30T09:13:45;4.10;;;3.00;;
28627;SDS011;15815;46.760;19.604;2023-04-30T09:16:11;3.20;;;2.90;;
28627;SDS011;15815;46.760;19.604;2023-04-30T09:18:40;6.72;;;3.67;;
28627;SDS011;15815;46.760;19.604;2023-04-30T09:21:11;5.28;;;3.55;;
28627;SDS011;15815;46.760;19.604;2023-04-30T09:24:00;6.15;;;3.47;;
28627;SDS011;15815;46.760;19.604;2023-04-30T09:26:31;6.97;;;4.10;;
28627;SDS011;15815;46.760;19.604;2023-04-30T09:28:58;5.35;;;3.90;;
28627;SDS011;15815;46.760;19.604;2023-04-30T09:31:24;4.28;;;3.05;;
28627;SDS011;15815;46.760;19.604;2023-04-30T09:33:54;6.03;;;2.85;;
28627;SDS011;15815;46.760;19.604;2023-04-30T09:36:22;3.03;;;2.45;;
28627;SDS011;15815;46.760;19.604;2023-04-30T09:38:48;4.63;;;2.97;;
28627;SDS011;15815;46.760;19.604;2023-04-30T09:41:21;3.05;;;2.47;;
28627;SDS011;15815;46.760;19.604;2023-04-30T09:43:51;3.30;;;2.92;;
28627;SDS011;15815;46.760;19.604;2023-04-30T09:46:18;3.97;;;3.40;;
28627;SDS011;15815;46.760;19.604;2023-04-30T09:48:44;5.75;;;3.40;;
28627;SDS011;15815;46.760;19.604;2023-04-30T09:51:26;6.45;;;2.97;;
28627;SDS011;15815;46.760;19.604;2023-04-30T09:53:54;3.08;;;2.78;;
28627;SDS011;15815;46.760;19.604;2023-04-30T09:56:20;2.75;;;2.40;;
28627;SDS011;15815;46.760;19.604;2023-04-30T09:58:54;2.53;;;2.33;;
28627;SDS011;15815;46.760;19.604;2023-04-30T10:01:21;6.28;;;3.30;;
28627;SDS011;15815;46.760;19.604;2023-04-30T10:03:49;3.88;;;2.85;;
28627;SDS011;15815;46.760;19.604;2023-04-30T10:06:15;5.90;;;3.22;;
28627;SDS011;15815;46.760;19.604;2023-04-30T10:08:50;4.63;;;3.28;;
28627;SDS011;15815;46.760;19.604;2023-04-30T10:11:21;4.57;;;3.00;;
28627;SDS011;15815;46.760;19.604;2023-04-30T10:14:06;5.40;;;2.63;;
28627;SDS011;15815;46.760;19.604;2023-04-30T10:19:24;2.28;;;1.67;;
28627;SDS011;15815;46.760;19.604;2023-04-30T10:21:59;2.65;;;1.45;;
28627;SDS011;15815;46.760;19.604;2023-04-30T10:24:26;2.25;;;1.65;;
28627;SDS011;15815;46.760;19.604;2023-04-30T10:26:54;3.45;;;2.20;;
28627;SDS011;15815;46.760;19.604;2023-04-30T10:29:20;4.15;;;2.88;;
28627;SDS011;15815;46.760;19.604;2023-04-30T10:31:56;8.25;;;3.22;;
28627;SDS011;15815;46.760;19.604;2023-04-30T10:40:10;9.15;;;2.80;;
28627;SDS011;15815;46.760;19.604;2023-04-30T10:42:48;8.38;;;2.85;;
28627;SDS011;15815;46.760;19.604;2023-04-30T10:45:14;2.85;;;2.28;;
28627;SDS011;15815;46.760;19.604;2023-04-30T10:47:43;13.52;;;2.90;;
28627;SDS011;15815;46.760;19.604;2023-04-30T10:50:09;2.85;;;2.30;;
28627;SDS011;15815;46.760;19.604;2023-04-30T10:52:36;2.40;;;2.20;;
28627;SDS011;15815;46.760;19.604;2023-04-30T10:55:06;10.48;;;2.90;;
28627;SDS011;15815;46.760;19.604;2023-04-30T10:57:40;4.05;;;2.47;;
28627;SDS011;15815;46.760;19.604;2023-04-30T11:03:06;4.82;;;2.70;;
28627;SDS011;15815;46.760;19.604;2023-04-30T11:05:37;5.47;;;3.22;;
28627;SDS011;15815;46.760;19.604;2023-04-30T11:08:04;4.53;;;2.97;;
28627;SDS011;15815;46.760;19.604;2023-04-30T11:10:33;4.90;;;2.50;;
28627;SDS011;15815;46.760;19.604;2023-04-30T11:13:06;6.85;;;2.35;;
28627;SDS011;15815;46.760;19.604;2023-04-30T11:15:42;3.95;;;2.30;;
28627;SDS011;15815;46.760;19.604;2023-04-30T11:18:10;3.00;;;2.28;;
28627;SDS011;15815;46.760;19.604;2023-04-30T11:20:47;1.92;;;1.67;;
28627;SDS011;15815;46.760;19.604;2023-04-30T11:23:14;2.50;;;2.00;;
28627;SDS011;15815;46.760;19.604;2023-04-30T11:25:47;3.58;;;2.22;;
28627;SDS011;15815;46.760;19.604;2023-04-30T11:28:14;5.80;;;2.55;;
28627;SDS011;15815;46.760;19.604;2023-04-30T11:30:57;4.80;;;2.42;;
28627;SDS011;15815;46.760;19.604;2023-04-30T11:33:25;4.60;;;1.88;;
28627;SDS011;15815;46.760;19.604;2023-04-30T11:35:52;7.15;;;2.53;;
28627;SDS011;15815;46.760;19.604;2023-04-30T11:38:19;2.53;;;2.33;;
28627;SDS011;15815;46.760;19.604;2023-04-30T11:40:46;6.25;;;2.15;;
28627;SDS011;15815;46.760;19.604;2023-04-30T11:43:27;6.53;;;2.05;;
28627;SDS011;15815;46.760;19.604;2023-04-30T11:46:01;5.90;;;2.22;;
28627;SDS011;15815;46.760;19.604;2023-04-30T11:48:31;4.15;;;2.28;;
28627;SDS011;15815;46.760;19.604;2023-04-30T11:51:19;2.33;;;2.13;;
28627;SDS011;15815;46.760;19.604;2023-04-30T11:53:46;4.55;;;2.15;;
28627;SDS011;15815;46.760;19.604;2023-04-30T11:56:16;3.58;;;1.70;;
28627;SDS011;15815;46.760;19.604;2023-04-30T11:58:46;4.25;;;1.88;;
28627;SDS011;15815;46.760;19.604;2023-04-30T12:01:13;3.55;;;1.70;;
28627;SDS011;15815;46.760;19.604;2023-04-30T12:03:43;3.63;;;1.50;;
28627;SDS011;15815;46.760;19.604;2023-04-30T12:06:10;5.28;;;1.88;;
28627;SDS011;15815;46.760;19.604;2023-04-30T12:08:36;11.35;;;1.85;;
28627;SDS011;15815;46.760;19.604;2023-04-30T12:11:02;2.53;;;1.85;;
28627;SDS011;15815;46.760;19.604;2023-04-30T12:13:30;18.88;;;2.13;;
28627;SDS011;15815;46.760;19.604;2023-04-30T12:15:56;3.30;;;1.42;;
28627;SDS011;15815;46.760;19.604;2023-04-30T12:18:25;3.83;;;1.65;;
28627;SDS011;15815;46.760;19.604;2023-04-30T12:20:51;4.05;;;1.27;;
28627;SDS011;15815;46.760;19.604;2023-04-30T12:23:16;1.70;;;1.52;;
28627;SDS011;15815;46.760;19.604;2023-04-30T12:25:43;2.63;;;1.48;;
28627;SDS011;15815;46.760;19.604;2023-04-30T12:28:09;1.73;;;1.63;;
28627;SDS011;15815;46.760;19.604;2023-04-30T12:30:35;1.70;;;1.20;;
28627;SDS011;15815;46.760;19.604;2023-04-30T12:33:01;6.25;;;1.70;;
28627;SDS011;15815;46.760;19.604;2023-04-30T12:35:27;3.03;;;1.40;;
28627;SDS011;15815;46.760;19.604;2023-04-30T12:38:04;1.45;;;1.30;;
28627;SDS011;15815;46.760;19.604;2023-04-30T12:40:32;4.65;;;1.77;;
28627;SDS011;15815;46.760;19.604;2023-04-30T12:43:02;1.60;;;1.50;;
28627;SDS011;15815;46.760;19.604;2023-04-30T12:45:51;6.73;;;1.63;;
28627;SDS011;15815;46.760;19.604;2023-04-30T12:48:19;6.60;;;1.50;;
28627;SDS011;15815;46.760;19.604;2023-04-30T12:50:47;8.77;;;1.77;;
28627;SDS011;15815;46.760;19.604;2023-04-30T12:53:17;2.78;;;1.60;;
28627;SDS011;15815;46.760;19.604;2023-04-30T12:55:42;1.83;;;1.60;;
28627;SDS011;15815;46.760;19.604;2023-04-30T12:58:09;11.05;;;1.73;;
28627;SDS011;15815;46.760;19.604;2023-04-30T13:03:19;6.32;;;1.85;;
28627;SDS011;15815;46.760;19.604;2023-04-30T13:05:49;2.75;;;1.63;;
28627;SDS011;15815;46.760;19.604;2023-04-30T13:08:15;5.22;;;1.60;;
28627;SDS011;15815;46.760;19.604;2023-04-30T13:10:42;6.18;;;1.50;;
28627;SDS011;15815;46.760;19.604;2023-04-30T13:13:09;6.40;;;1.75;;
28627;SDS011;15815;46.760;19.604;2023-04-30T13:15:35;36.03;;;3.25;;
28627;SDS011;15815;46.760;19.604;2023-04-30T13:18:00;74.93;;;6.13;;
28627;SDS011;15815;46.760;19.604;2023-04-30T13:20:27;4.18;;;1.70;;
28627;SDS011;15815;46.760;19.604;2023-04-30T13:22:58;3.47;;;1.70;;
28627;SDS011;15815;46.760;19.604;2023-04-30T13:25:24;2.17;;;1.92;;
28627;SDS011;15815;46.760;19.604;2023-04-30T13:27:49;3.22;;;1.80;;
28627;SDS011;15815;46.760;19.604;2023-04-30T13:30:16;2.15;;;1.80;;
28627;SDS011;15815;46.760;19.604;2023-04-30T13:32:42;4.25;;;2.10;;
28627;SDS011;15815;46.760;19.604;2023-04-30T13:35:07;2.70;;;1.90;;
28627;SDS011;15815;46.760;19.604;2023-04-30T13:37:33;1.75;;;1.50;;
28627;SDS011;15815;46.760;19.604;2023-04-30T13:39:59;6.70;;;1.92;;
28627;SDS011;15815;46.760;19.604;2023-04-30T13:42:24;4.05;;;1.63;;
28627;SDS011;15815;46.760;19.604;2023-04-30T13:44:50;4.60;;;1.88;;
28627;SDS011;15815;46.760;19.604;2023-04-30T13:47:16;3.20;;;1.80;;
28627;SDS011;15815;46.760;19.604;2023-04-30T13:49:42;1.95;;;1.80;;
28627;SDS011;15815;46.760;19.604;2023-04-30T13:52:08;1.95;;;1.70;;
28627;SDS011;15815;46.760;19.604;2023-04-30T13:54:33;1.70;;;1.60;;
28627;SDS011;15815;46.760;19.604;2023-04-30T13:56:59;2.17;;;1.70;;
28627;SDS011;15815;46.760;19.604;2023-04-30T13:59:25;1.70;;;1.60;;
28627;SDS011;15815;46.760;19.604;2023-04-30T14:01:50;11.82;;;1.83;;
28627;SDS011;15815;46.760;19.604;2023-04-30T14:04:18;2.10;;;1.80;;
28627;SDS011;15815;46.760;19.604;2023-04-30T14:06:45;3.72;;;1.60;;
28627;SDS011;15815;46.760;19.604;2023-04-30T14:09:10;2.28;;;1.60;;
28627;SDS011;15815;46.760;19.604;2023-04-30T14:11:36;2.08;;;1.60;;
28627;SDS011;15815;46.760;19.604;2023-04-30T14:14:02;5.15;;;1.70;;
28627;SDS011;15815;46.760;19.604;2023-04-30T14:16:27;4.28;;;1.23;;
28627;SDS011;15815;46.760;19.604;2023-04-30T14:18:53;4.13;;;1.45;;
28627;SDS011;15815;46.760;19.604;2023-04-30T14:21:19;1.75;;;1.30;;
28627;SDS011;15815;46.760;19.604;2023-04-30T14:23:44;4.47;;;1.30;;
28627;SDS011;15815;46.760;19.604;2023-04-30T14:26:10;2.15;;;1.27;;
28627;SDS011;15815;46.760;19.604;2023-04-30T14:28:35;4.50;;;1.63;;
28627;SDS011;15815;46.760;19.604;2023-04-30T14:31:01;1.88;;;1.50;;
28627;SDS011;15815;46.760;19.604;2023-04-30T14:33:27;1.63;;;1.45;;
28627;SDS011;15815;46.760;19.604;2023-04-30T14:35:52;28.13;;;2.22;;
28627;SDS011;15815;46.760;19.604;2023-04-30T14:38:18;4.78;;;1.50;;
28627;SDS011;15815;46.760;19.604;2023-04-30T14:40:44;1.58;;;1.48;;
28627;SDS011;15815;46.760;19.604;2023-04-30T14:43:10;3.70;;;2.28;;
28627;SDS011;15815;46.760;19.604;2023-04-30T14:45:36;9.07;;;3.00;;
28627;SDS011;15815;46.760;19.604;2023-04-30T14:48:01;3.47;;;1.58;;
28627;SDS011;15815;46.760;19.604;2023-04-30T14:50:27;4.35;;;1.67;;
28627;SDS011;15815;46.760;19.604;2023-04-30T14:52:53;1.48;;;1.38;;
28627;SDS011;15815;46.760;19.604;2023-04-30T14:55:18;4.25;;;1.60;;
28627;SDS011;15815;46.760;19.604;2023-04-30T14:57:44;2.20;;;1.70;;
28627;SDS011;15815;46.760;19.604;2023-04-30T15:00:09;2.45;;;1.83;;
28627;SDS011;15815;46.760;19.604;2023-04-30T15:02:35;5.13;;;4.22;;
28627;SDS011;15815;46.760;19.604;2023-04-30T15:05:02;6.30;;;5.75;;